To NAV CANADA Home Page Login to a new session Search on AWWS site Feedback and Comments Disclaimer Vers la page française équivalente Tips FAQ What's new on the site To the Forecasts and Observations / NOTAM section To "File a Flight Plan" website Publications and other links Update of the User's profile FIC Telephone Numbers My Weather Data Folder Route Weather Data Regional Weather Data Local Weather Data To the Forecasts and Observations / NOTAM section
Request Generated 05/05/2015 at 00:12:25 UTC . Weather information available at that time is displayed.

METAR/TAF

HAVRE ST-PIERRE/QC    (show WxCam)

METAR CYGV 050000Z AUTO 09009KT 9SM -RA OVC090 07/05 A2977 RMK PRESFR
SLP082=
METAR CYGV 042300Z AUTO VRB02KT 9SM -RA OVC085 10/06 A2981 RMK PRESFR
SLP095=
SPECI CYGV 042255Z AUTO 00000KT 9SM -RA OVC085 11/06 A2982 RMK PRESRR
SLP099=
METAR CYGV 042200Z AUTO 31003KT 300V080 9SM BKN090 OVC110 13/05 A2982
RMK PRESRR SLP101=

TAF CYGV 041938Z 0420/0508 VRB03KT P6SM BKN120
FM050300 VRB03KT P6SM BKN050 TEMPO 0503/0506 5SM -SHRA BR OVC020
FM050600 VRB03KT P6SM -RA SCT006 OVC020 TEMPO 0506/0508 4SM -RA
BR OVC006
RMK FCST BASED ON AUTO OBS. NXT FCST BY 050200Z=
Your time UTC time
Weather data provided by Environment Canada and NAV CANADA